Time;durP1;ratioP1;P1;durP2;ratioP2;P2;SDS_P1;SDS_P2;PMS_P1;PMS_P2;Temp;Humidity;BMP_temperature;BMP_pressure;BME280_temperature;BME280_humidity;BME280_pressure;Samples;Min_cycle;Max_cycle;Signal;HPM_P1;HPM_P2
2021/07/20 00:00:24;;;;;;;3.65;3.30;;;;;;;15.95;67.37;101336.66;6244193;22;20073;-86
2021/07/20 00:02:54;;;;;;;7.28;3.22;;;;;;;15.97;67.38;101340.13;6215878;22;20054;-87
2021/07/20 00:05:27;;;;;;;5.45;3.80;;;;;;;15.94;66.88;101335.75;6261403;22;20077;-86
2021/07/20 00:07:57;;;;;;;2.60;2.40;;;;;;;15.93;67.03;101338.44;6240276;22;20031;-88
2021/07/20 00:10:31;;;;;;;4.97;2.78;;;;;;;15.94;67.02;101345.47;6236735;22;20382;-86
2021/07/20 00:12:58;;;;;;;3.40;3.10;;;;;;;15.95;67.15;101344.56;6239566;22;20020;-88
2021/07/20 00:15:27;;;;;;;6.25;3.60;;;;;;;15.92;67.22;101345.50;6238409;22;20024;-88
2021/07/20 00:17:57;;;;;;;6.85;3.45;;;;;;;15.92;67.48;101341.97;6264118;22;20015;-88
2021/07/20 00:20:27;;;;;;;3.70;3.22;;;;;;;15.91;67.55;101343.75;6240590;22;20020;-88
2021/07/20 00:22:55;;;;;;;4.32;3.20;;;;;;;15.89;67.41;101342.91;6263752;22;20154;-87
2021/07/20 00:25:22;;;;;;;6.53;3.30;;;;;;;15.87;67.67;101347.38;6264422;22;20159;-89
2021/07/20 00:27:49;;;;;;;2.95;2.65;;;;;;;15.84;67.47;101340.38;6239820;22;20752;-88
2021/07/20 00:30:19;;;;;;;4.05;3.15;;;;;;;15.83;67.74;101343.91;6262526;22;20050;-88
2021/07/20 00:32:46;;;;;;;4.43;3.45;;;;;;;15.80;67.81;101349.22;6240968;22;20081;-88
2021/07/20 00:35:14;;;;;;;5.65;3.00;;;;;;;15.79;67.92;101358.03;6236530;22;20028;-84
2021/07/20 00:37:43;;;;;;;5.40;3.33;;;;;;;15.78;68.12;101350.16;6264427;22;20019;-85
2021/07/20 00:40:20;;;;;;;5.72;3.63;;;;;;;15.76;68.28;101347.56;6237098;22;20583;-86
2021/07/20 00:42:48;;;;;;;4.07;3.03;;;;;;;15.74;68.33;101345.84;6266610;22;20384;-88
2021/07/20 00:45:17;;;;;;;3.17;2.97;;;;;;;15.71;68.77;101344.13;6222360;22;20020;-85
2021/07/20 00:47:46;;;;;;;6.40;3.38;;;;;;;15.70;68.59;101345.03;6214991;22;20096;-88
2021/07/20 00:50:17;;;;;;;4.07;2.95;;;;;;;15.66;68.95;101340.72;6262205;22;20098;-86
2021/07/20 00:52:43;;;;;;;6.30;3.63;;;;;;;15.65;68.90;101346.88;6240253;22;20030;-86
2021/07/20 00:55:14;;;;;;;3.75;3.22;;;;;;;15.63;69.02;101335.47;6263958;22;20043;-88
2021/07/20 00:57:42;;;;;;;7.72;3.67;;;;;;;15.61;69.40;101335.50;6237534;22;20019;-85
2021/07/20 01:00:14;;;;;;;3.25;2.92;;;;;;;15.56;69.71;101340.00;6239617;22;20034;-87
2021/07/20 01:02:42;;;;;;;4.70;3.55;;;;;;;15.54;69.98;101336.53;6234854;22;20073;-87
2021/07/20 01:05:12;;;;;;;6.15;3.42;;;;;;;15.53;70.01;101337.44;6263280;22;20039;-86
2021/07/20 01:07:43;;;;;;;7.97;3.58;;;;;;;15.53;70.37;101337.44;6262031;22;20066;-88
2021/07/20 01:10:12;;;;;;;5.32;4.07;;;;;;;15.51;70.64;101337.47;6263176;22;20054;-88
2021/07/20 01:12:39;;;;;;;6.47;4.25;;;;;;;15.50;70.49;101333.09;6264973;22;20309;-87
2021/07/20 01:15:08;;;;;;;7.55;3.60;;;;;;;15.50;70.68;101329.56;6234861;22;20016;-88
2021/07/20 01:17:37;;;;;;;4.68;3.80;;;;;;;15.50;70.87;101330.44;6237121;22;20025;-88
2021/07/20 01:20:14;;;;;;;7.10;3.85;;;;;;;15.49;70.88;101328.69;6262773;22;20303;-88
2021/07/20 01:22:52;;;;;;;7.35;3.67;;;;;;;15.48;71.10;101332.22;6264129;22;20084;-87
2021/07/20 01:25:19;;;;;;;4.03;3.08;;;;;;;15.46;71.13;101322.59;6260694;22;20351;-88
2021/07/20 01:27:53;;;;;;;3.78;3.00;;;;;;;15.46;71.25;101323.50;6263352;22;20023;-88
2021/07/20 01:30:20;;;;;;;8.05;3.00;;;;;;;15.45;71.24;101320.84;6263690;22;20023;-87
2021/07/20 01:32:49;;;;;;;3.28;2.92;;;;;;;15.41;71.42;101314.78;6237280;22;20390;-87
2021/07/20 01:35:16;;;;;;;5.22;2.95;;;;;;;15.41;71.77;101325.34;6263751;22;20358;-88
2021/07/20 01:37:48;;;;;;;5.25;3.60;;;;;;;15.41;71.91;101320.06;6239177;22;20126;-86
2021/07/20 01:40:16;;;;;;;5.60;3.33;;;;;;;15.41;71.87;101320.06;6265291;22;20027;-86
2021/07/20 01:42:45;;;;;;;4.45;3.63;;;;;;;15.41;72.18;101322.69;6266254;22;20019;-83
2021/07/20 01:45:14;;;;;;;4.55;3.65;;;;;;;15.39;72.20;101322.69;6261870;22;20012;-88
2021/07/20 01:47:46;;;;;;;3.97;3.10;;;;;;;15.38;72.50;101325.38;6240632;22;20032;-85
2021/07/20 01:50:16;;;;;;;4.18;3.00;;;;;;;15.36;72.42;101325.41;6262368;22;20332;-86
2021/07/20 01:52:43;;;;;;;5.20;3.55;;;;;;;15.37;72.39;101326.31;6291150;22;20053;-86
2021/07/20 01:55:11;;;;;;;5.43;3.45;;;;;;;15.37;72.39;101321.88;6261038;22;20024;-87
2021/07/20 01:57:43;;;;;;;6.78;3.58;;;;;;;15.39;72.51;101325.34;6239454;22;20081;-84
2021/07/20 02:00:16;;;;;;;4.75;2.88;;;;;;;15.38;72.59;101328.00;6240411;22;20690;-86
2021/07/20 02:02:57;;;;;;;9.23;3.60;;;;;;;15.39;72.72;101332.41;6262814;22;20718;-86
2021/07/20 02:08:26;;;;;;;5.05;3.08;;;;;;;15.39;72.79;101332.41;6262956;22;20383;-87
2021/07/20 02:11:04;;;;;;;6.13;3.35;;;;;;;15.35;72.98;101326.31;6263135;22;20023;-87
2021/07/20 02:13:42;;;;;;;4.82;2.72;;;;;;;15.32;73.34;101329.00;6260250;22;20046;-87
2021/07/20 02:16:13;;;;;;;3.90;3.35;;;;;;;15.29;73.75;101326.44;6237308;22;20039;-84
2021/07/20 02:18:46;;;;;;;7.93;3.53;;;;;;;15.28;73.63;101329.06;6262270;22;20019;-86
2021/07/20 02:21:15;;;;;;;3.65;3.10;;;;;;;15.26;74.00;101321.19;6238938;22;20035;-84
2021/07/20 02:23:44;;;;;;;8.38;4.78;;;;;;;15.25;74.68;101324.72;6239082;22;20019;-87
2021/07/20 02:26:11;;;;;;;5.63;3.25;;;;;;;15.23;74.64;101334.44;6235553;22;20381;-88
2021/07/20 02:28:39;;;;;;;6.07;4.03;;;;;;;15.18;75.37;101334.50;6239399;22;20343;-87
2021/07/20 02:31:08;;;;;;;8.43;3.65;;;;;;;15.16;75.24;101333.69;6260317;22;20036;-87
2021/07/20 02:33:38;;;;;;;4.47;3.38;;;;;;;15.15;75.48;101331.09;6263499;22;20042;-85
2021/07/20 02:36:07;;;;;;;4.22;3.35;;;;;;;15.14;75.67;101332.84;6234603;22;20074;-88
2021/07/20 02:38:35;;;;;;;7.18;3.03;;;;;;;15.15;75.43;101320.53;6237749;22;20023;-86
2021/07/20 02:41:03;;;;;;;5.53;3.40;;;;;;;15.15;75.57;101328.44;6237800;22;20292;-87
2021/07/20 02:43:32;;;;;;;5.10;3.63;;;;;;;15.14;75.64;101331.97;6237416;22;20099;-87
2021/07/20 02:46:01;;;;;;;5.57;3.35;;;;;;;15.12;75.69;101325.84;6286608;22;20024;-88
2021/07/20 02:48:29;;;;;;;4.47;2.78;;;;;;;15.10;75.82;101325.88;6260823;22;20510;-86
2021/07/20 02:50:56;;;;;;;6.00;4.25;;;;;;;15.09;76.12;101320.63;6237301;22;20390;-87
2021/07/20 02:53:23;;;;;;;4.10;3.53;;;;;;;15.07;76.10;101317.13;6237898;22;20034;-87
2021/07/20 02:55:51;;;;;;;6.95;4.40;;;;;;;15.04;76.39;101326.84;6233018;22;20034;-87
2021/07/20 02:58:23;;;;;;;6.43;4.18;;;;;;;15.02;76.82;101317.22;6237646;22;20055;-88
2021/07/20 03:00:50;;;;;;;9.48;4.07;;;;;;;15.00;77.01;101322.50;6236241;22;20028;-88
2021/07/20 03:03:18;;;;;;;5.43;4.38;;;;;;;14.97;77.48;101324.34;6262874;22;20030;-88
2021/07/20 03:05:52;;;;;;;5.80;3.92;;;;;;;14.97;77.68;101341.03;6235149;22;20517;-87
2021/07/20 03:08:27;;;;;;;5.50;4.03;;;;;;;14.98;78.08;101337.50;6262981;22;20024;-86
2021/07/20 03:10:54;;;;;;;9.15;4.88;;;;;;;14.99;78.35;101331.34;6238170;22;20046;-87
2021/07/20 03:13:22;;;;;;;6.50;4.68;;;;;;;14.98;78.39;101340.13;6234433;22;20025;-86
2021/07/20 03:15:49;;;;;;;10.25;5.53;;;;;;;14.98;78.48;101336.59;6235853;22;20095;-88
2021/07/20 03:18:16;;;;;;;7.55;4.55;;;;;;;14.96;78.96;101336.63;6261155;22;20081;-86
2021/07/20 03:20:45;;;;;;;8.57;4.50;;;;;;;14.97;79.01;101340.16;6237377;22;20130;-87
2021/07/20 03:23:17;;;;;;;6.35;4.43;;;;;;;14.93;79.31;101335.81;6237799;22;20089;-85
2021/07/20 03:25:48;;;;;;;6.65;5.15;;;;;;;14.93;79.80;101333.19;6236116;22;20099;-88
2021/07/20 03:28:15;;;;;;;7.20;5.15;;;;;;;14.93;79.54;101341.97;6264075;22;20016;-88
2021/07/20 03:30:42;;;;;;;6.72;4.50;;;;;;;14.91;79.97;101343.75;6221436;22;20015;-87
2021/07/20 03:33:09;;;;;;;7.43;5.13;;;;;;;14.90;80.07;101344.66;6236487;22;20026;-88
2021/07/20 03:35:36;;;;;;;7.85;4.90;;;;;;;14.88;80.01;101349.09;6233109;22;20077;-86
2021/07/20 03:38:04;;;;;;;6.28;4.60;;;;;;;14.89;80.20;101340.28;6238835;22;20031;-88
2021/07/20 03:40:31;;;;;;;10.57;4.78;;;;;;;14.90;80.27;101339.41;6264430;22;20019;-87
2021/07/20 03:42:58;;;;;;;8.60;4.60;;;;;;;14.89;80.03;101340.28;6262859;22;20027;-89
2021/07/20 03:45:25;;;;;;;6.32;4.13;;;;;;;14.88;80.13;101343.81;6262775;22;20022;-88
2021/07/20 03:47:52;;;;;;;8.25;4.47;;;;;;;14.89;80.37;101335.88;6237421;22;20081;-88
2021/07/20 03:50:20;;;;;;;13.02;4.90;;;;;;;14.92;80.40;101342.00;6267228;22;20031;-87
2021/07/20 03:52:59;;;;;;;10.10;4.80;;;;;;;14.91;80.55;101346.38;6264065;22;20043;-88
2021/07/20 03:55:26;;;;;;;8.82;3.88;;;;;;;14.90;80.54;101339.41;6239931;22;20468;-87
2021/07/20 03:57:53;;;;;;;6.47;4.57;;;;;;;14.92;80.56;101352.56;6266332;22;20023;-88
2021/07/20 04:00:21;;;;;;;6.47;4.78;;;;;;;14.91;80.33;101341.13;6225550;22;20036;-88
2021/07/20 04:02:58;;;;;;;6.60;4.75;;;;;;;14.92;80.40;101342.00;6218542;22;20116;-87
2021/07/20 04:05:26;;;;;;;12.10;4.93;;;;;;;14.95;80.87;101349.84;6258446;22;20335;-87
2021/07/20 04:07:57;;;;;;;8.50;4.82;;;;;;;14.93;81.33;101347.25;6238430;22;20069;-87
2021/07/20 04:10:31;;;;;;;5.75;4.35;;;;;;;14.92;80.98;101350.78;6261910;22;20031;-85
2021/07/20 04:12:58;;;;;;;10.52;4.90;;;;;;;14.94;80.80;101349.00;6262038;22;20030;-87
2021/07/20 04:15:25;;;;;;;10.45;4.03;;;;;;;14.93;81.03;101347.25;6236704;22;20495;-86
2021/07/20 04:17:53;;;;;;;6.30;4.90;;;;;;;14.91;81.00;101350.81;6260295;22;20015;-87
2021/07/20 04:20:23;;;;;;;7.75;4.13;;;;;;;14.87;81.21;101353.50;6239817;22;20077;-87
2021/07/20 04:22:50;;;;;;;7.55;4.63;;;;;;;14.86;81.22;101351.75;6237495;22;20457;-88
2021/07/20 04:25:17;;;;;;;8.80;4.50;;;;;;;14.86;81.09;101356.13;6263031;22;20023;-86
2021/07/20 04:27:45;;;;;;;8.63;4.18;;;;;;;14.86;81.26;101357.03;6239119;22;20020;-88
2021/07/20 04:30:15;;;;;;;9.32;4.75;;;;;;;14.86;81.46;101353.50;6236450;22;20028;-86
2021/07/20 04:32:47;;;;;;;13.32;4.47;;;;;;;14.86;81.40;101350.84;6264731;22;20030;-88
2021/07/20 04:35:19;;;;;;;15.57;5.78;;;;;;;14.86;81.37;101356.13;6236314;22;20020;-87
2021/07/20 04:37:46;;;;;;;9.95;5.93;;;;;;;14.86;81.46;101356.13;6238609;22;20781;-88
2021/07/20 04:40:15;;;;;;;10.95;5.28;;;;;;;14.87;81.43;101358.78;6260892;22;20038;-87
2021/07/20 04:42:43;;;;;;;10.52;5.88;;;;;;;14.87;81.32;101360.50;6263704;22;20034;-87
2021/07/20 04:45:12;;;;;;;7.90;4.80;;;;;;;14.88;81.40;101359.63;6237858;22;20020;-85
2021/07/20 04:47:41;;;;;;;10.02;6.10;;;;;;;14.89;81.39;101364.88;6259469;22;20509;-85
2021/07/20 04:50:15;;;;;;;9.80;5.82;;;;;;;14.91;81.26;101363.97;6264976;22;20192;-87
2021/07/20 04:52:59;;;;;;;;;;;;;;;;;;;;;
2021/07/20 04:55:36;;;;;;;20.52;8.20;;;;;;;14.93;81.25;101372.72;6267216;22;19999;-89
2021/07/20 04:58:06;;;;;;;20.52;7.65;;;;;;;14.93;81.36;101368.34;6238554;22;20392;-85
2021/07/20 05:00:35;;;;;;;15.20;7.55;;;;;;;14.91;81.58;101367.47;6223447;22;20023;-84
2021/07/20 05:03:05;;;;;;;11.88;6.38;;;;;;;14.90;81.39;101376.31;6243386;22;20058;-89
2021/07/20 05:05:42;;;;;;;13.82;7.25;;;;;;;14.90;81.50;101373.66;6260999;22;20024;-86
2021/07/20 05:08:14;;;;;;;23.60;7.90;;;;;;;14.92;81.92;101377.13;6263410;22;20020;-86
2021/07/20 05:10:46;;;;;;;14.85;6.38;;;;;;;14.95;81.56;101368.31;6232451;22;20027;-84
2021/07/20 05:14:08;;;;;;;23.13;7.78;;;;;;;14.94;81.84;101372.72;6265293;22;20139;-88
2021/07/20 05:16:35;;;;;;;12.77;6.65;;;;;;;14.96;81.55;101370.91;6205898;23;20263;-86
2021/07/20 05:19:04;;;;;;;11.98;5.88;;;;;;;14.99;81.72;101368.25;6254984;22;20479;-86
2021/07/20 05:21:31;;;;;;;12.30;7.13;;;;;;;15.04;81.44;101365.53;6237582;22;20019;-88
2021/07/20 05:24:01;;;;;;;17.83;7.07;;;;;;;15.08;81.31;101371.63;6239395;22;20027;-86
2021/07/20 05:26:33;;;;;;;20.38;6.40;;;;;;;15.10;81.47;101368.06;6240119;22;20023;-85
2021/07/20 05:29:02;;;;;;;10.80;6.00;;;;;;;15.13;81.56;101375.91;6265117;22;20043;-88
2021/07/20 05:31:31;;;;;;;13.45;5.60;;;;;;;15.17;81.32;101377.59;6266095;22;20031;-86
2021/07/20 05:33:58;;;;;;;14.55;6.47;;;;;;;15.21;81.11;101366.13;6236917;22;20456;-85
2021/07/20 05:36:27;;;;;;;10.88;6.28;;;;;;;15.25;80.83;101373.97;6290735;22;20353;-86
2021/07/20 05:39:13;;;;;;;14.02;6.20;;;;;;;15.25;80.96;101366.06;6237283;22;20110;-88
2021/07/20 05:41:42;;;;;;;12.85;7.07;;;;;;;15.27;80.84;101375.69;6242813;22;20031;-88
2021/07/20 05:44:13;;;;;;;12.13;4.80;;;;;;;15.30;80.66;101378.25;6238957;22;20031;-86
2021/07/20 05:46:45;;;;;;;10.80;5.68;;;;;;;15.35;80.62;101380.84;6232671;22;20025;-86
2021/07/20 05:49:14;;;;;;;10.50;5.57;;;;;;;15.39;80.53;101382.53;6239996;22;20024;-87
2021/07/20 05:51:42;;;;;;;7.05;6.20;;;;;;;15.43;80.23;101375.44;6237994;22;20023;-87
2021/07/20 05:54:23;;;;;;;9.68;5.40;;;;;;;15.48;80.19;101371.81;6237853;22;20035;-87
2021/07/20 05:56:59;;;;;;;6.72;5.03;;;;;;;15.53;79.70;101369.97;6263572;22;20101;-85
2021/07/20 05:59:27;;;;;;;7.45;4.82;;;;;;;15.57;79.12;101369.91;6240562;22;20083;-87
2021/07/20 06:01:54;;;;;;;8.05;5.75;;;;;;;15.57;79.20;101378.69;6263725;22;20355;-87
2021/07/20 06:04:22;;;;;;;7.60;5.38;;;;;;;15.61;78.90;101374.25;6234426;22;20028;-88
2021/07/20 06:06:53;;;;;;;11.60;4.95;;;;;;;15.66;78.57;101377.66;6240004;22;20050;-88
2021/07/20 06:09:21;;;;;;;5.35;4.32;;;;;;;15.69;78.95;101386.38;6236900;22;20023;-86
2021/07/20 06:11:49;;;;;;;5.20;3.88;;;;;;;15.75;78.30;101387.16;6236942;22;20081;-86
2021/07/20 06:14:24;;;;;;;7.07;5.63;;;;;;;15.78;78.09;101384.47;6212829;22;20452;-88
2021/07/20 06:16:52;;;;;;;8.98;5.53;;;;;;;15.88;78.00;101386.09;6238230;22;20042;-87
2021/07/20 06:19:19;;;;;;;6.88;4.95;;;;;;;15.98;77.37;101386.75;6264703;22;20112;-89
2021/07/20 06:21:53;;;;;;;10.02;5.20;;;;;;;16.03;77.08;101391.06;6235570;22;20024;-86
2021/07/20 06:24:23;;;;;;;5.88;4.45;;;;;;;16.13;76.76;101393.53;6239611;22;20030;-86
2021/07/20 06:26:51;;;;;;;8.43;4.97;;;;;;;16.23;76.44;101395.06;6236341;22;20030;-89
2021/07/20 06:29:20;;;;;;;6.15;4.43;;;;;;;16.33;75.95;101396.59;6263364;22;20081;-87
2021/07/20 06:31:48;;;;;;;8.77;4.50;;;;;;;16.44;75.54;101398.13;6238128;22;20034;-86
2021/07/20 06:34:16;;;;;;;5.43;4.22;;;;;;;16.54;75.07;101399.69;6236359;22;20027;-88
2021/07/20 06:36:43;;;;;;;8.10;5.05;;;;;;;16.65;74.60;101396.81;6264349;22;20094;-87
2021/07/20 06:39:11;;;;;;;5.90;4.03;;;;;;;16.74;73.86;101396.59;6260971;22;20382;-89
2021/07/20 06:41:39;;;;;;;5.43;4.15;;;;;;;16.81;73.15;101395.53;6238290;22;20450;-88
2021/07/20 06:44:07;;;;;;;7.82;4.03;;;;;;;16.93;72.90;101399.72;6261584;22;20019;-85
2021/07/20 06:46:37;;;;;;;7.65;3.72;;;;;;;17.06;72.01;101402.94;6238096;22;20370;-87
2021/07/20 06:49:15;;;;;;;4.88;3.40;;;;;;;17.17;70.62;101403.56;6239805;22;20032;-86
2021/07/20 06:51:42;;;;;;;5.47;2.63;;;;;;;17.24;69.43;101403.41;6235783;22;20028;-86
2021/07/20 06:54:09;;;;;;;6.25;3.45;;;;;;;17.30;69.10;101406.78;6211980;22;20473;-86
2021/07/20 06:56:42;;;;;;;5.13;3.20;;;;;;;17.39;68.61;101400.38;6233425;22;20020;-86
2021/07/20 06:59:12;;;;;;;4.50;2.97;;;;;;;17.56;68.31;101407.00;6237950;22;20425;-86
2021/07/20 07:01:41;;;;;;;5.85;2.63;;;;;;;17.67;67.23;101410.25;6235496;22;20122;-85
2021/07/20 07:04:19;;;;;;;5.88;3.08;;;;;;;17.78;66.79;101407.28;6261696;22;20443;-87
2021/07/20 07:06:50;;;;;;;3.97;2.75;;;;;;;17.88;66.28;101407.94;6236256;22;20106;-86
2021/07/20 07:09:20;;;;;;;5.25;3.20;;;;;;;18.00;65.76;101421.75;6233290;22;20122;-85
2021/07/20 07:11:48;;;;;;;3.78;2.33;;;;;;;18.14;65.20;101413.38;6262423;22;20019;-86
2021/07/20 07:14:16;;;;;;;6.70;2.92;;;;;;;18.28;64.32;101420.09;6233513;22;20366;-84
2021/07/20 07:16:48;;;;;;;5.03;3.17;;;;;;;18.40;63.80;101416.22;6235726;22;20028;-84
2021/07/20 07:19:19;;;;;;;6.10;2.38;;;;;;;18.49;63.12;101413.28;6259922;22;20118;-86
2021/07/20 07:21:49;;;;;;;4.65;2.40;;;;;;;18.54;62.50;101424.63;6236739;22;20081;-84
2021/07/20 07:24:18;;;;;;;5.45;2.25;;;;;;;18.54;62.32;101424.63;6261917;22;20027;-85
2021/07/20 07:26:47;;;;;;;4.55;2.92;;;;;;;18.56;61.75;101420.13;6258175;22;20047;-85
2021/07/20 07:29:16;;;;;;;3.90;2.63;;;;;;;18.59;61.72;101417.41;6286254;22;20403;-87
2021/07/20 07:31:48;;;;;;;5.88;2.50;;;;;;;18.73;61.18;101424.06;6233314;22;20050;-85
2021/07/20 07:34:16;;;;;;;5.07;2.92;;;;;;;18.87;60.81;101421.00;6260990;22;20446;-84
2021/07/20 07:36:47;;;;;;;3.13;2.83;;;;;;;18.91;60.15;101426.16;6234923;22;20326;-87
2021/07/20 07:39:15;;;;;;;5.65;3.00;;;;;;;18.95;59.69;101426.94;6229180;22;20114;-83
2021/07/20 07:41:45;;;;;;;3.95;2.92;;;;;;;18.92;60.19;101427.91;6235273;22;20179;-87
2021/07/20 07:44:16;;;;;;;3.80;2.80;;;;;;;19.01;59.74;101429.41;6233169;22;20028;-88
2021/07/20 07:46:45;;;;;;;4.38;3.28;;;;;;;19.12;59.52;101421.94;6236632;22;20034;-87
2021/07/20 07:49:13;;;;;;;3.90;2.92;;;;;;;19.17;58.91;101435.94;6234362;22;20081;-86
2021/07/20 07:51:43;;;;;;;2.80;2.22;;;;;;;19.21;59.09;101431.41;6236233;22;20078;-87
2021/07/20 07:54:12;;;;;;;5.43;3.10;;;;;;;19.27;58.22;101430.34;6261064;22;20027;-86
2021/07/20 07:56:40;;;;;;;5.15;3.50;;;;;;;19.14;59.08;101433.41;6257986;22;20026;-86
2021/07/20 07:59:09;;;;;;;4.55;3.38;;;;;;;19.14;58.80;101436.03;6210957;22;20871;-87
2021/07/20 08:01:50;;;;;;;2.70;2.42;;;;;;;19.07;58.62;101431.84;6232736;22;20027;-87
2021/07/20 08:04:25;;;;;;;4.05;2.40;;;;;;;19.02;58.30;101433.81;6261999;22;20012;-87
2021/07/20 08:06:58;;;;;;;6.28;2.22;;;;;;;18.94;58.19;101447.31;6232697;22;20028;-88
2021/07/20 08:09:29;;;;;;;6.53;3.17;;;;;;;18.88;58.14;101443.91;6236939;22;20114;-88
2021/07/20 08:12:01;;;;;;;3.38;2.85;;;;;;;18.87;58.74;101442.22;6262575;22;20016;-84
2021/07/20 08:14:33;;;;;;;4.40;2.42;;;;;;;18.82;58.77;101447.63;6233908;22;20519;-84
2021/07/20 08:17:02;;;;;;;3.30;2.80;;;;;;;18.82;58.93;101440.53;6259732;22;20027;-86
2021/07/20 08:19:31;;;;;;;4.10;2.55;;;;;;;18.93;58.30;101439.38;6259219;22;20099;-84
2021/07/20 08:22:07;;;;;;;2.92;2.60;;;;;;;19.16;57.70;101442.19;6237388;22;20047;-88
2021/07/20 08:24:37;;;;;;;3.67;2.72;;;;;;;19.48;56.72;101436.72;6235040;22;20043;-85
2021/07/20 08:27:14;;;;;;;6.47;2.60;;;;;;;19.71;55.37;101433.28;6238392;22;20023;-86
2021/07/20 08:29:44;;;;;;;2.90;2.70;;;;;;;19.87;55.14;101436.31;6264998;22;20814;-88
2021/07/20 08:32:16;;;;;;;5.82;2.83;;;;;;;20.05;54.95;101439.22;6235243;22;20031;-85
2021/07/20 08:34:54;;;;;;;6.28;3.10;;;;;;;20.12;54.28;101436.28;6237244;22;20115;-86
2021/07/20 08:37:23;;;;;;;4.95;2.75;;;;;;;20.30;54.02;101433.88;6234489;22;20024;-88
2021/07/20 08:39:52;;;;;;;4.28;2.90;;;;;;;20.54;53.51;101440.03;6239653;22;20027;-88
2021/07/20 08:42:52;;;;;;;4.40;2.90;;;;;;;20.76;52.64;101441.91;6236164;22;20019;-86
2021/07/20 08:45:24;;;;;;;5.90;2.42;;;;;;;21.10;52.01;101435.25;6237281;22;20144;-86
2021/07/20 08:48:15;;;;;;;4.40;3.00;;;;;;;21.66;50.08;101433.81;6263516;22;20063;-85
2021/07/20 08:51:05;;;;;;;4.72;2.40;;;;;;;22.11;47.94;101438.06;6237339;22;20106;-85
2021/07/20 08:53:33;;;;;;;5.13;2.22;;;;;;;22.33;48.14;101439.75;6238544;22;20199;-86
2021/07/20 08:56:03;;;;;;;4.35;2.63;;;;;;;22.41;47.49;101436.75;6235037;22;20049;-87
2021/07/20 08:58:41;;;;;;;5.78;2.55;;;;;;;22.41;47.28;101442.97;6238253;22;20023;-86
2021/07/20 09:01:28;;;;;;;5.03;2.08;;;;;;;22.30;46.15;101434.56;6222109;22;20090;-86
2021/07/20 09:04:22;;;;;;;4.25;2.35;;;;;;;22.02;47.17;101446.47;6255743;22;20460;-86
2021/07/20 09:07:02;;;;;;;3.50;1.85;;;;;;;21.69;47.44;101440.81;6235738;22;20034;-87
2021/07/20 09:09:35;;;;;;;4.00;2.47;;;;;;;21.46;48.11;101445.31;6238342;22;20510;-87
2021/07/20 09:12:10;;;;;;;4.22;2.20;;;;;;;21.25;48.66;101445.28;6261768;22;20023;-86
2021/07/20 09:14:50;;;;;;;4.22;2.30;;;;;;;21.17;49.03;101449.16;6264783;22;20023;-88
2021/07/20 09:17:23;;;;;;;4.88;2.22;;;;;;;20.97;49.00;101448.19;6262035;22;20089;-86
2021/07/20 09:20:14;;;;;;;6.88;2.72;;;;;;;20.66;48.95;101447.56;6238759;22;20024;-88
2021/07/20 09:22:51;;;;;;;2.40;2.20;;;;;;;20.58;49.55;101446.13;6239210;22;20030;-86
2021/07/20 09:25:59;;;;;;;3.03;2.60;;;;;;;20.47;48.50;101450.06;6261684;22;20039;-87
2021/07/20 09:28:41;;;;;;;2.92;1.88;;;;;;;20.47;49.07;101454.50;6242958;22;20020;-87
2021/07/20 09:31:38;;;;;;;2.30;1.48;;;;;;;20.49;49.13;101436.69;6236154;22;20251;-88
2021/07/20 09:34:22;;;;;;;2.90;1.88;;;;;;;20.50;49.05;101447.25;6239274;22;20024;-86
2021/07/20 09:37:04;;;;;;;4.63;2.45;;;;;;;20.44;48.79;101451.94;6238023;22;20035;-86
2021/07/20 09:39:44;;;;;;;2.20;1.70;;;;;;;20.41;48.42;101449.41;6239446;22;20030;-87
2021/07/20 09:43:02;;;;;;;1.75;1.65;;;;;;;20.37;48.81;101453.13;6262293;22;20268;-87
2021/07/20 09:45:41;;;;;;;2.67;2.05;;;;;;;20.52;48.69;101449.88;6260129;22;20359;-87
2021/07/20 09:48:23;;;;;;;2.30;2.10;;;;;;;20.88;47.82;101446.75;6262865;22;20019;-87
2021/07/20 09:51:17;;;;;;;3.25;1.65;;;;;;;21.13;46.67;101448.41;6239459;22;20032;-87
2021/07/20 09:54:10;;;;;;;2.80;1.88;;;;;;;21.34;45.91;101445.81;6262130;22;20024;-87
2021/07/20 09:57:20;;;;;;;3.40;1.65;;;;;;;21.43;45.29;101443.63;6239936;22;20106;-87
2021/07/20 10:00:07;;;;;;;3.35;2.03;;;;;;;21.27;45.46;101446.06;6261930;22;20023;-87
2021/07/20 10:03:16;;;;;;;3.13;2.20;;;;;;;21.14;45.02;101448.34;6263060;22;20031;-87
2021/07/20 10:06:13;;;;;;;1.80;1.65;;;;;;;21.02;45.48;101453.34;6262000;22;20043;-87
2021/07/20 10:09:04;;;;;;;4.90;1.80;;;;;;;20.94;45.99;101446.50;6264710;22;20024;-87
2021/07/20 10:11:58;;;;;;;3.28;1.65;;;;;;;21.20;45.76;101447.25;6235967;22;20081;-87
2021/07/20 10:14:49;;;;;;;2.97;2.00;;;;;;;21.58;44.92;101450.13;6239794;22;20027;-86
2021/07/20 10:17:56;;;;;;;2.47;1.90;;;;;;;22.23;44.14;101449.13;6235753;22;20087;-86
2021/07/20 10:20:29;;;;;;;3.70;1.50;;;;;;;23.92;41.20;101457.91;6265364;22;20043;-87
2021/07/20 10:23:35;;;;;;;5.87;2.23;;;;;;;24.23;39.15;101450.94;6261505;22;20027;-88
2021/07/20 10:26:16;;;;;;;2.28;2.10;;;;;;;23.60;40.34;101457.75;6240020;22;20692;-88
2021/07/20 10:29:06;;;;;;;3.45;2.30;;;;;;;22.86;41.39;101448.00;6238149;22;20641;-88
2021/07/20 10:31:57;;;;;;;4.57;2.47;;;;;;;22.27;43.88;101453.38;6237730;22;20460;-86
2021/07/20 10:34:28;;;;;;;3.03;2.13;;;;;;;21.81;44.78;101461.59;6237189;22;20085;-85
2021/07/20 10:37:07;;;;;;;3.30;1.92;;;;;;;21.54;45.67;101460.97;6239101;22;20051;-87
2021/07/20 10:39:42;;;;;;;2.42;2.13;;;;;;;21.24;46.29;101458.66;6263113;22;20034;-87
2021/07/20 10:42:38;;;;;;;2.83;2.20;;;;;;;20.93;46.61;101458.06;6234749;22;20458;-86
2021/07/20 10:45:13;;;;;;;2.20;2.00;;;;;;;20.81;47.27;101456.75;6264356;22;20067;-86
2021/07/20 10:48:04;;;;;;;4.93;2.58;;;;;;;20.88;47.41;101453.88;6260147;22;20028;-86
2021/07/20 10:50:45;;;;;;;2.05;1.90;;;;;;;21.04;46.49;101455.00;6238759;22;20024;-86
2021/07/20 10:53:42;;;;;;;2.58;2.15;;;;;;;21.11;46.44;101444.97;6261160;22;20050;-87
2021/07/20 10:56:21;;;;;;;5.53;1.80;;;;;;;21.08;46.34;101448.63;6264739;22;20458;-87
2021/07/20 10:59:32;;;;;;;4.80;2.28;;;;;;;21.01;46.32;101452.44;6238974;22;20378;-89
2021/07/20 11:02:22;;;;;;;2.20;1.90;;;;;;;21.07;46.22;101448.69;6237540;22;20027;-89
2021/07/20 11:04:55;;;;;;;2.20;1.77;;;;;;;21.14;46.22;101451.00;6261342;22;20043;-85
2021/07/20 11:07:51;;;;;;;4.95;2.67;;;;;;;21.36;45.58;101450.13;6264869;22;20583;-87
2021/07/20 11:10:32;;;;;;;3.28;2.10;;;;;;;21.48;45.22;101449.66;6235384;22;20049;-88
2021/07/20 11:13:08;;;;;;;3.20;2.15;;;;;;;21.47;45.27;101455.91;6288737;22;20456;-87
2021/07/20 11:15:37;;;;;;;2.30;2.10;;;;;;;21.54;45.06;101450.31;6235963;22;20177;-84
2021/07/20 11:18:31;;;;;;;1.80;1.70;;;;;;;21.69;44.52;101456.81;6238374;22;20359;-86
2021/07/20 11:21:01;;;;;;;4.10;2.10;;;;;;;21.78;44.39;101457.28;6232397;22;20028;-89
2021/07/20 11:23:33;;;;;;;2.55;1.58;;;;;;;22.06;43.73;101452.53;6236457;22;20389;-87
2021/07/20 11:26:03;;;;;;;4.63;1.77;;;;;;;22.11;43.16;101446.06;6238397;22;20024;-85
2021/07/20 11:28:31;;;;;;;2.97;1.80;;;;;;;22.02;43.16;101450.94;6235201;22;20372;-87
2021/07/20 11:31:07;;;;;;;3.05;1.70;;;;;;;21.95;43.27;101450.34;6237935;22;20024;-89
2021/07/20 11:33:41;;;;;;;2.25;1.73;;;;;;;21.84;43.43;101449.94;6286800;22;20019;-87
2021/07/20 11:36:11;;;;;;;2.13;1.58;;;;;;;21.73;43.76;101453.97;6239385;22;20128;-86
2021/07/20 11:38:40;;;;;;;2.05;1.85;;;;;;;21.69;43.66;101454.16;6238049;22;20026;-89
2021/07/20 11:41:42;;;;;;;1.65;1.55;;;;;;;21.69;43.52;101457.66;6234333;22;20026;-87
2021/07/20 11:44:27;;;;;;;4.63;2.47;;;;;;;21.94;43.23;101459.25;6239728;22;20020;-88
2021/07/20 11:47:03;;;;;;;2.78;1.75;;;;;;;22.17;42.68;101457.41;6234448;22;20028;-86
2021/07/20 11:50:08;;;;;;;3.25;2.15;;;;;;;22.33;42.38;101450.41;6240344;22;20081;-87
2021/07/20 11:52:47;;;;;;;3.10;2.05;;;;;;;22.69;41.64;101454.16;6235942;22;20122;-87
2021/07/20 11:55:36;;;;;;;1.95;1.85;;;;;;;23.00;41.27;101455.34;6264240;22;20039;-88
2021/07/20 11:58:50;;;;;;;1.58;1.50;;;;;;;23.33;40.80;101447.50;6263220;22;20019;-87